Startpagina
METAR-TAF:

METAR-TAF

Vliegvelden :

Tunis, Tunesië

Luchthaven Tunis-Carthage

breedte: 36-50N, lengte: 010-14E, hoogte: 3 m

Actueel weer

Dit bericht is 31 minuten geleden gemaakt, om 11:30 UTC
Wind 12 kt uit het westen, variërend tussen het westzuidwesten en het westnoordwesten
Temperatuur 19°C
Vochtigheid 52%
Druk 1018 hPa
Zicht 10 km of meer
Verspreide wolken op 2600 ft

METAR: DTTA 191130Z 28012KT 240V300 9999 SCT026 19/09 Q1018 NOSIG

Tijdstip: 13:01 (12:01 UTC)

Verwachting

Dit bericht is 58 minuten geleden gemaakt, om 11:03 UTC
Verwachting geldig van 19 om 12 UTC tot 20 om 12 UTC
Wind 15 kt uit het westnoordwesten
Zicht 10 km of meer
Verspreide wolken op 2600 ft
Tijdelijke
van 19 om 22 UTC tot 20 om 10 UTC
Wind 5 kt uit het westzuidwesten

TAF: DTTA 191103Z 1912/2012 30015KT 9999 SCT026 TEMPO 1922/2010 24005KT

Waarnemingen en weersverwachtingen van meer dan 4000 vliegvelden (METAR en TAF).

De beschikbare stations zijn de gele en rode punten op de kaart.

Ga met uw muis naar het station om de naam te zien.

Klik dan om waarnemingen en weersverwachtingen te zien.

kaart wijzigen: klik op de groene knoppen met een zwart kruis om in te zoomen, op de groene knop met een streepje om uit te zoomen of op de groene pijlen voor aangrenzende kaarten.


METAR-TAF: